This is the latest recevied weather packets stored in our database for station/object SP4FDH-13. If no packets are shown the sender has not sent any weather packets the latest 10 day(s).
| Time | Temp. | Humidity | Pressure | Rain* | Wind** | Luminosity | Snow |
|---|---|---|---|---|---|---|---|
| 1777728257 | 29.44° C | 19% | 1016.4 hPa | - | - | - | - |
| 1777727683 | 30° C | 19% | 1016.6 hPa | - | - | - | - |
| 1777727109 | 30.56° C | 19% | 1016.8 hPa | - | - | - | - |
| 1777726534 | 31.11° C | 16% | 1016.5 hPa | - | - | - | - |
| 1777725958 | 31.11° C | 16% | 1016.7 hPa | - | - | - | - |
| 1777725383 | 31.67° C | 17% | 1017 hPa | - | - | - | - |
| 1777724807 | 31.11° C | 18% | 1017.2 hPa | - | - | - | - |
| 1777724231 | 31.67° C | 18% | 1017.4 hPa | - | - | - | - |
| 1777723655 | 31.11° C | 18% | 1017.4 hPa | - | - | - | - |
| 1777723078 | 31.67° C | 19% | 1017.8 hPa | - | - | - | - |
| 1777722501 | 31.11° C | 19% | 1017.8 hPa | - | - | - | - |
| 1777721924 | 31.11° C | 19% | 1017.9 hPa | - | - | - | - |
| 1777721348 | 30.56° C | 19% | 1017.9 hPa | - | - | - | - |
| 1777720771 | 30.56° C | 20% | 1018.2 hPa | - | - | - | - |
| 1777720194 | 30° C | 20% | 1018.1 hPa | - | - | - | - |
| 1777719617 | 30° C | 19% | 1018.1 hPa | - | - | - | - |
| 1777719041 | 30° C | 20% | 1018.2 hPa | - | - | - | - |
| 1777718464 | 30° C | 23% | 1018.6 hPa | - | - | - | - |
| 1777717888 | 30° C | 23% | 1018.5 hPa | - | - | - | - |
| 1777717312 | 30° C | 22% | 1018.6 hPa | - | - | - | - |
| 1777716736 | 29.44° C | 23% | 1018.8 hPa | - | - | - | - |
| 1777716159 | 30° C | 24% | 1018.9 hPa | - | - | - | - |
| 1777715582 | 29.44° C | 26% | 1019.2 hPa | - | - | - | - |
| 1777715006 | 30° C | 25% | 1019.1 hPa | - | - | - | - |
| 1777714429 | 30° C | 25% | 1019.2 hPa | - | - | - | - |
* Rain since midnight (hover to see other rain measurements)
** Current wind speed in m/s (hover to see current wind gust speed)